createdAt,value
2022-12-20T00:23:39.044Z,64
2022-12-20T00:53:48.497Z,63
2022-12-20T01:23:55.273Z,61
2022-12-20T01:53:51.567Z,72
2022-12-20T02:23:38.004Z,75
2022-12-20T02:53:39.086Z,73
2022-12-20T03:23:29.149Z,70
2022-12-20T03:53:25.969Z,68
2022-12-20T04:23:23.157Z,67
2022-12-20T04:53:22.500Z,66
2022-12-20T05:23:23.390Z,72
2022-12-20T05:53:22.872Z,68
2022-12-20T06:23:18.841Z,71
2022-12-20T06:53:15.298Z,80
2022-12-20T07:23:22.080Z,66
2022-12-20T07:53:28.971Z,62
2022-12-20T08:23:39.919Z,47
2022-12-20T08:53:46.524Z,59
2022-12-20T09:23:42.676Z,68
2022-12-20T09:53:32.566Z,69
2022-12-20T10:23:33.255Z,71
2022-12-20T10:53:33.742Z,72
2022-12-20T11:23:30.020Z,60
2022-12-20T11:53:55.464Z,61
2022-12-20T12:23:55.279Z,54
2022-12-20T12:53:55.914Z,66
2022-12-20T13:23:46.448Z,50
2022-12-20T13:53:58.201Z,44
2022-12-20T14:23:52.427Z,60
2022-12-20T14:53:46.823Z,63
2022-12-20T15:23:44.464Z,66
2022-12-20T15:53:42.009Z,65
2022-12-20T16:23:34.827Z,49
2022-12-20T16:53:57.286Z,61
2022-12-20T17:24:00.229Z,44
2022-12-20T17:54:04.639Z,42
2022-12-20T18:24:00.040Z,43
2022-12-20T18:54:04.612Z,39
2022-12-20T19:24:04.710Z,37
2022-12-20T19:54:01.785Z,64
2022-12-20T20:23:57.760Z,42
2022-12-20T20:54:01.189Z,36
2022-12-20T21:24:02.610Z,36
2022-12-20T21:54:06.682Z,36
2022-12-20T22:24:02.069Z,36
2022-12-20T22:54:02.171Z,34
2022-12-20T23:23:56.998Z,33
2022-12-20T23:53:54.413Z,33
